createdAt,value
2023-07-01T00:00:36.765Z,458.00
2023-07-01T00:01:36.795Z,459.00
2023-07-01T00:02:36.823Z,460.00
2023-07-01T00:03:36.833Z,460.00
2023-07-01T00:04:36.850Z,463.00
2023-07-01T00:05:36.705Z,465.00
2023-07-01T00:06:36.715Z,463.00
2023-07-01T00:07:36.693Z,460.00
2023-07-01T00:08:36.686Z,459.00
2023-07-01T00:09:36.698Z,461.00
2023-07-01T00:10:36.704Z,461.00
2023-07-01T00:11:36.678Z,461.00
2023-07-01T00:12:36.724Z,462.00
2023-07-01T00:13:36.654Z,461.00
2023-07-01T00:14:36.676Z,462.00
2023-07-01T00:15:36.656Z,463.00
2023-07-01T00:16:36.647Z,462.00
2023-07-01T00:17:36.695Z,462.00
2023-07-01T00:18:36.632Z,463.00
2023-07-01T00:19:36.616Z,462.00
2023-07-01T00:20:36.615Z,462.00
2023-07-01T00:21:36.620Z,460.00
2023-07-01T00:22:36.607Z,462.00
2023-07-01T00:23:36.596Z,463.00
2023-07-01T00:24:36.568Z,463.00
2023-07-01T00:25:36.593Z,462.00
2023-07-01T00:26:36.559Z,463.00
2023-07-01T00:27:36.626Z,462.00
2023-07-01T00:28:36.711Z,461.00
2023-07-01T00:29:36.636Z,463.00
2023-07-01T00:30:36.707Z,462.00
2023-07-01T00:31:36.723Z,463.00
2023-07-01T00:32:36.781Z,464.00
2023-07-01T00:33:36.696Z,464.00
2023-07-01T00:34:36.781Z,463.00
2023-07-01T00:35:36.750Z,461.00
2023-07-01T00:36:36.755Z,462.00
2023-07-01T00:37:36.850Z,461.00
2023-07-01T00:38:36.767Z,462.00
2023-07-01T00:39:36.809Z,464.00
2023-07-01T00:40:36.809Z,464.00
2023-07-01T00:41:36.805Z,463.00
2023-07-01T00:42:36.853Z,463.00
2023-07-01T00:43:36.857Z,462.00
2023-07-01T00:44:36.887Z,461.00
2023-07-01T00:45:36.909Z,462.00
2023-07-01T00:46:37.031Z,460.00
2023-07-01T00:47:36.949Z,459.00
2023-07-01T00:48:36.952Z,459.00
2023-07-01T00:49:36.943Z,460.00
2023-07-01T00:50:37.010Z,458.00
2023-07-01T00:51:36.997Z,457.00
2023-07-01T00:52:37.046Z,458.00
2023-07-01T00:53:37.046Z,460.00
2023-07-01T00:54:37.050Z,458.00
2023-07-01T00:55:37.035Z,458.00
2023-07-01T00:56:37.100Z,459.00
2023-07-01T00:57:37.103Z,461.00
2023-07-01T00:58:37.320Z,462.00
2023-07-01T00:59:37.148Z,460.00
2023-07-01T01:00:37.165Z,461.00
2023-07-01T01:01:37.161Z,460.00
2023-07-01T01:02:37.210Z,461.00
2023-07-01T01:03:37.281Z,463.00
2023-07-01T01:04:37.323Z,466.00
2023-07-01T01:05:37.239Z,467.00
2023-07-01T01:06:37.301Z,466.00
2023-07-01T01:07:37.350Z,465.00
2023-07-01T01:08:37.317Z,466.00
2023-07-01T01:09:37.351Z,463.00
2023-07-01T01:10:37.359Z,460.00
2023-07-01T01:11:37.345Z,461.00
2023-07-01T01:12:37.396Z,463.00
2023-07-01T01:13:37.422Z,462.00
2023-07-01T01:14:37.408Z,460.00
2023-07-01T01:15:37.459Z,460.00
2023-07-01T01:16:37.480Z,459.00
2023-07-01T01:17:37.493Z,460.00
2023-07-01T01:18:37.500Z,463.00
2023-07-01T01:19:37.592Z,462.00
2023-07-01T01:20:37.570Z,463.00
2023-07-01T01:21:37.591Z,462.00
2023-07-01T01:22:43.225Z,464.00
2023-07-01T01:23:38.589Z,461.00
2023-07-01T01:24:37.555Z,457.00
2023-07-01T01:25:37.584Z,457.00
2023-07-01T01:26:37.568Z,458.00
2023-07-01T01:27:37.546Z,457.00
2023-07-01T01:28:37.572Z,455.00
2023-07-01T01:29:37.546Z,453.00
2023-07-01T01:30:37.534Z,457.00
2023-07-01T01:31:37.607Z,457.00
2023-07-01T01:32:37.551Z,456.00
2023-07-01T01:33:37.564Z,459.00
2023-07-01T01:34:37.518Z,462.00
2023-07-01T01:35:37.528Z,461.00
2023-07-01T01:36:37.525Z,464.00
2023-07-01T01:37:37.469Z,462.00
2023-07-01T01:38:37.486Z,462.00
2023-07-01T01:39:37.497Z,463.00
2023-07-01T01:40:37.486Z,463.00
2023-07-01T01:41:37.503Z,461.00
2023-07-01T01:42:37.592Z,461.00
2023-07-01T01:43:37.529Z,458.00
2023-07-01T01:44:37.591Z,456.00
2023-07-01T01:45:37.640Z,458.00
2023-07-01T01:46:37.712Z,458.00
2023-07-01T01:47:37.776Z,460.00
2023-07-01T01:48:37.729Z,462.00
2023-07-01T01:49:37.691Z,461.00
2023-07-01T01:50:37.711Z,460.00
2023-07-01T01:51:37.760Z,454.00
2023-07-01T01:52:37.790Z,454.00
2023-07-01T01:53:37.862Z,453.00
2023-07-01T01:54:37.821Z,451.00
2023-07-01T01:55:37.883Z,451.00
2023-07-01T01:56:37.936Z,454.00
2023-07-01T01:57:37.945Z,452.00
2023-07-01T01:58:37.953Z,453.00
2023-07-01T01:59:37.961Z,451.00
2023-07-01T02:00:38.028Z,452.00
2023-07-01T02:01:38.086Z,454.00
2023-07-01T02:02:38.699Z,458.00
2023-07-01T02:03:38.256Z,456.00
2023-07-01T02:04:38.344Z,455.00
2023-07-01T02:05:38.216Z,458.00
2023-07-01T02:06:38.191Z,454.00
2023-07-01T02:07:38.577Z,451.00
2023-07-01T02:08:38.235Z,451.00
2023-07-01T02:09:38.284Z,452.00
2023-07-01T02:10:38.281Z,450.00
2023-07-01T02:11:38.325Z,449.00
2023-07-01T02:12:38.531Z,449.00
2023-07-01T02:13:38.383Z,452.00
2023-07-01T02:14:38.371Z,452.00
2023-07-01T02:15:38.456Z,455.00
2023-07-01T02:16:38.466Z,451.00
2023-07-01T02:17:38.652Z,449.00
2023-07-01T02:18:38.480Z,449.00
2023-07-01T02:19:38.511Z,444.00
2023-07-01T02:20:38.559Z,447.00
2023-07-01T02:21:38.574Z,448.00
2023-07-01T02:22:39.023Z,452.00
2023-07-01T02:23:38.598Z,455.00
2023-07-01T02:24:39.812Z,455.00
2023-07-01T02:25:38.645Z,458.00
2023-07-01T02:26:38.704Z,459.00
2023-07-01T02:27:38.756Z,457.00
2023-07-01T02:28:38.742Z,454.00
2023-07-01T02:29:38.768Z,454.00
2023-07-01T02:30:38.845Z,458.00
2023-07-01T02:31:38.841Z,456.00
2023-07-01T02:32:39.128Z,455.00
2023-07-01T02:33:38.867Z,457.00
2023-07-01T02:34:38.906Z,452.00
2023-07-01T02:35:38.897Z,448.00
2023-07-01T02:36:38.939Z,447.00
2023-07-01T02:37:39.014Z,451.00
2023-07-01T02:38:38.988Z,450.00
2023-07-01T02:39:39.046Z,449.00
2023-07-01T02:40:39.044Z,449.00
2023-07-01T02:41:39.129Z,451.00
2023-07-01T02:42:39.543Z,452.00
2023-07-01T02:43:39.137Z,455.00
2023-07-01T02:44:39.182Z,455.00
2023-07-01T02:45:39.174Z,456.00
2023-07-01T02:46:39.237Z,456.00
2023-07-01T02:47:39.321Z,457.00
2023-07-01T02:48:39.256Z,456.00
2023-07-01T02:49:39.303Z,457.00
2023-07-01T02:50:39.325Z,455.00
2023-07-01T02:51:39.400Z,454.00
2023-07-01T02:52:39.395Z,452.00
2023-07-01T02:53:39.413Z,452.00
2023-07-01T02:54:39.452Z,448.00
2023-07-01T02:55:39.451Z,450.00
2023-07-01T02:56:39.496Z,451.00
2023-07-01T02:57:39.552Z,451.00
2023-07-01T02:58:39.568Z,451.00
2023-07-01T02:59:39.641Z,452.00
2023-07-01T03:00:39.635Z,453.00
2023-07-01T03:01:39.745Z,450.00
2023-07-01T03:02:39.875Z,448.00
2023-07-01T03:03:39.744Z,449.00
2023-07-01T03:04:39.794Z,451.00
2023-07-01T03:05:39.804Z,453.00
2023-07-01T03:06:39.799Z,454.00
2023-07-01T03:07:39.854Z,455.00
2023-07-01T03:08:39.904Z,454.00
2023-07-01T03:09:39.872Z,451.00
2023-07-01T03:10:39.959Z,454.00
2023-07-01T03:11:39.942Z,454.00
2023-07-01T03:12:39.981Z,454.00
2023-07-01T03:13:40.002Z,453.00
2023-07-01T03:14:39.997Z,451.00
2023-07-01T03:15:40.077Z,451.00
2023-07-01T03:16:40.108Z,454.00
2023-07-01T03:17:40.120Z,455.00
2023-07-01T03:18:40.141Z,453.00
2023-07-01T03:19:40.161Z,453.00
2023-07-01T03:20:40.171Z,453.00
2023-07-01T03:21:40.217Z,454.00
2023-07-01T03:22:40.241Z,453.00
2023-07-01T03:23:40.292Z,455.00
2023-07-01T03:24:40.341Z,454.00
2023-07-01T03:25:40.348Z,453.00
2023-07-01T03:26:40.362Z,453.00
2023-07-01T03:27:40.400Z,455.00
2023-07-01T03:28:40.414Z,455.00
2023-07-01T03:29:40.443Z,453.00
2023-07-01T03:30:40.476Z,455.00
2023-07-01T03:31:40.571Z,456.00
2023-07-01T03:32:40.547Z,457.00
2023-07-01T03:33:40.561Z,460.00
2023-07-01T03:34:40.614Z,462.00
2023-07-01T03:35:40.627Z,461.00
2023-07-01T03:36:41.454Z,462.00
2023-07-01T03:37:40.672Z,462.00
2023-07-01T03:38:40.692Z,462.00
2023-07-01T03:39:40.755Z,464.00
2023-07-01T03:40:40.786Z,463.00
2023-07-01T03:41:40.789Z,464.00
2023-07-01T03:42:40.930Z,462.00
2023-07-01T03:43:40.848Z,459.00
2023-07-01T03:44:40.963Z,459.00
2023-07-01T03:45:40.982Z,464.00
2023-07-01T03:46:40.967Z,465.00
2023-07-01T03:47:41.072Z,470.00
2023-07-01T03:48:41.022Z,473.00
2023-07-01T03:49:41.084Z,474.00
2023-07-01T03:50:41.148Z,473.00
2023-07-01T03:51:41.151Z,472.00
2023-07-01T03:52:41.628Z,472.00
2023-07-01T03:53:41.205Z,470.00
2023-07-01T03:54:41.237Z,471.00
2023-07-01T03:55:41.321Z,471.00
2023-07-01T03:56:41.321Z,469.00
2023-07-01T03:57:41.403Z,465.00
2023-07-01T03:58:41.397Z,462.00
2023-07-01T03:59:41.456Z,463.00
2023-07-01T04:00:41.482Z,461.00
2023-07-01T04:01:41.513Z,461.00
2023-07-01T04:02:41.599Z,458.00
2023-07-01T04:03:41.616Z,459.00
2023-07-01T04:04:41.609Z,459.00
2023-07-01T04:05:41.609Z,458.00
2023-07-01T04:06:41.665Z,460.00
2023-07-01T04:07:41.721Z,460.00
2023-07-01T04:08:41.728Z,459.00
2023-07-01T04:09:41.727Z,459.00
2023-07-01T04:10:41.800Z,461.00
2023-07-01T04:11:41.871Z,463.00
2023-07-01T04:12:41.861Z,464.00
2023-07-01T04:13:41.913Z,463.00
2023-07-01T04:14:41.997Z,460.00
2023-07-01T04:15:41.987Z,459.00
2023-07-01T04:16:42.048Z,459.00
2023-07-01T04:17:42.087Z,460.00
2023-07-01T04:18:42.097Z,457.00
2023-07-01T04:19:42.115Z,457.00
2023-07-01T04:20:42.185Z,458.00
2023-07-01T04:21:42.195Z,458.00
2023-07-01T04:22:42.576Z,456.00
2023-07-01T04:23:42.248Z,454.00
2023-07-01T04:24:42.247Z,453.00
2023-07-01T04:25:42.321Z,455.00
2023-07-01T04:26:42.362Z,454.00
2023-07-01T04:27:42.555Z,455.00
2023-07-01T04:28:42.442Z,455.00
2023-07-01T04:29:42.456Z,458.00
2023-07-01T04:30:42.479Z,456.00
2023-07-01T04:31:42.648Z,453.00
2023-07-01T04:32:43.089Z,454.00
2023-07-01T04:33:42.600Z,454.00
2023-07-01T04:34:42.676Z,454.00
2023-07-01T04:35:42.682Z,453.00
2023-07-01T04:36:42.738Z,454.00
2023-07-01T04:37:43.104Z,453.00
2023-07-01T04:38:42.735Z,454.00
2023-07-01T04:39:42.808Z,452.00
2023-07-01T04:40:42.829Z,453.00
2023-07-01T04:41:42.857Z,456.00
2023-07-01T04:42:43.083Z,455.00
2023-07-01T04:43:42.952Z,456.00
2023-07-01T04:44:43.010Z,454.00
2023-07-01T04:45:43.051Z,454.00
2023-07-01T04:46:43.106Z,453.00
2023-07-01T04:47:43.636Z,452.00
2023-07-01T04:48:43.117Z,451.00
2023-07-01T04:49:43.169Z,453.00
2023-07-01T04:50:43.206Z,453.00
2023-07-01T04:51:43.229Z,452.00
2023-07-01T04:52:43.316Z,449.00
2023-07-01T04:53:43.319Z,452.00
2023-07-01T04:54:43.342Z,450.00
2023-07-01T04:55:43.378Z,447.00
2023-07-01T04:56:43.398Z,448.00
2023-07-01T04:57:43.447Z,450.00
2023-07-01T04:58:43.468Z,449.00
2023-07-01T04:59:43.518Z,447.00
2023-07-01T05:00:43.541Z,447.00
2023-07-01T05:01:43.647Z,450.00
2023-07-01T05:02:44.247Z,452.00
2023-07-01T05:03:43.724Z,454.00
2023-07-01T05:04:43.763Z,457.00
2023-07-01T05:05:43.738Z,458.00
2023-07-01T05:06:43.836Z,456.00
2023-07-01T05:07:44.165Z,456.00
2023-07-01T05:08:43.851Z,456.00
2023-07-01T05:09:43.853Z,454.00
2023-07-01T05:10:43.889Z,453.00
2023-07-01T05:11:43.951Z,451.00
2023-07-01T05:12:44.077Z,449.00
2023-07-01T05:13:44.065Z,447.00
2023-07-01T05:14:44.081Z,442.00
2023-07-01T05:15:44.106Z,442.00
2023-07-01T05:16:44.161Z,442.00
2023-07-01T05:17:44.631Z,439.00
2023-07-01T05:18:44.216Z,444.00
2023-07-01T05:19:44.248Z,442.00
2023-07-01T05:20:45.712Z,441.00
2023-07-01T05:21:44.322Z,441.00
2023-07-01T05:22:44.366Z,440.00
2023-07-01T05:23:44.401Z,442.00
2023-07-01T05:24:44.425Z,443.00
2023-07-01T05:25:44.451Z,440.00
2023-07-01T05:26:44.490Z,440.00
2023-07-01T05:27:44.544Z,439.00
2023-07-01T05:28:44.575Z,440.00
2023-07-01T05:29:44.607Z,439.00
2023-07-01T05:30:44.891Z,438.00
2023-07-01T05:31:44.644Z,443.00
2023-07-01T05:32:44.725Z,444.00
2023-07-01T05:33:44.755Z,445.00
2023-07-01T05:34:44.837Z,444.00
2023-07-01T05:35:44.812Z,443.00
2023-07-01T05:36:44.867Z,444.00
2023-07-01T05:37:44.907Z,447.00
2023-07-01T05:38:44.975Z,446.00
2023-07-01T05:39:44.982Z,444.00
2023-07-01T05:40:45.335Z,442.00
2023-07-01T05:41:45.079Z,440.00
2023-07-01T05:42:45.136Z,440.00
2023-07-01T05:43:45.169Z,444.00
2023-07-01T05:44:45.186Z,445.00
2023-07-01T05:45:45.255Z,447.00
2023-07-01T05:46:45.303Z,447.00
2023-07-01T05:47:45.398Z,447.00
2023-07-01T05:48:45.355Z,449.00
2023-07-01T05:49:45.399Z,447.00
2023-07-01T05:50:45.729Z,448.00
2023-07-01T05:51:45.509Z,448.00
2023-07-01T05:52:45.560Z,448.00
2023-07-01T05:53:45.593Z,448.00
2023-07-01T05:54:45.670Z,449.00
2023-07-01T05:55:45.664Z,449.00
2023-07-01T05:56:45.723Z,447.00
2023-07-01T05:57:45.743Z,448.00
2023-07-01T05:58:45.819Z,449.00
2023-07-01T05:59:45.851Z,450.00
2023-07-01T06:00:46.202Z,450.00
2023-07-01T06:01:46.030Z,450.00
2023-07-01T06:02:46.262Z,450.00
2023-07-01T06:03:46.130Z,448.00
2023-07-01T06:04:46.089Z,445.00
2023-07-01T06:05:46.095Z,447.00
2023-07-01T06:06:46.094Z,449.00
2023-07-01T06:07:46.174Z,450.00
2023-07-01T06:08:46.220Z,449.00
2023-07-01T06:09:46.228Z,451.00
2023-07-01T06:10:46.485Z,450.00
2023-07-01T06:11:46.332Z,448.00
2023-07-01T06:12:46.361Z,447.00
2023-07-01T06:13:46.374Z,448.00
2023-07-01T06:14:46.463Z,447.00
2023-07-01T06:15:46.527Z,447.00
2023-07-01T06:16:46.531Z,449.00
2023-07-01T06:17:46.825Z,448.00
2023-07-01T06:18:46.609Z,449.00
2023-07-01T06:19:46.626Z,449.00
2023-07-01T06:20:46.856Z,450.00
2023-07-01T06:21:46.746Z,449.00
2023-07-01T06:22:46.803Z,449.00
2023-07-01T06:23:46.800Z,449.00
2023-07-01T06:24:46.873Z,452.00
2023-07-01T06:25:46.897Z,455.00
2023-07-01T06:26:46.984Z,454.00
2023-07-01T06:27:46.991Z,456.00
2023-07-01T06:28:47.082Z,455.00
2023-07-01T06:29:47.061Z,453.00
2023-07-01T06:30:47.220Z,454.00
2023-07-01T06:31:47.218Z,454.00
2023-07-01T06:32:47.231Z,454.00
2023-07-01T06:33:47.178Z,455.00
2023-07-01T06:34:47.213Z,456.00
2023-07-01T06:35:47.258Z,454.00
2023-07-01T06:36:47.258Z,452.00
2023-07-01T06:37:47.642Z,451.00
2023-07-01T06:38:47.351Z,450.00
2023-07-01T06:39:47.406Z,451.00
2023-07-01T06:40:47.714Z,453.00
2023-07-01T06:41:47.414Z,453.00
2023-07-01T06:42:47.485Z,452.00
2023-07-01T06:43:47.498Z,449.00
2023-07-01T06:44:47.539Z,444.00
2023-07-01T06:45:47.662Z,444.00
2023-07-01T06:46:47.627Z,443.00
2023-07-01T06:47:47.675Z,444.00
2023-07-01T06:48:47.640Z,446.00
2023-07-01T06:49:47.736Z,446.00
2023-07-01T06:50:47.965Z,448.00
2023-07-01T06:51:47.809Z,449.00
2023-07-01T06:52:47.836Z,449.00
2023-07-01T06:53:47.846Z,451.00
2023-07-01T06:54:48.984Z,449.00
2023-07-01T06:55:47.898Z,451.00
2023-07-01T06:56:47.939Z,453.00
2023-07-01T06:57:47.979Z,452.00
2023-07-01T06:58:48.055Z,454.00
2023-07-01T06:59:48.058Z,455.00
2023-07-01T07:00:48.329Z,454.00
2023-07-01T07:01:48.215Z,453.00
2023-07-01T07:02:48.220Z,453.00
2023-07-01T07:03:48.235Z,450.00
2023-07-01T07:04:48.207Z,451.00
2023-07-01T07:05:48.223Z,450.00
2023-07-01T07:06:48.263Z,449.00
2023-07-01T07:07:48.321Z,449.00
2023-07-01T07:08:48.312Z,450.00
2023-07-01T07:09:48.360Z,448.00
2023-07-01T07:10:48.685Z,449.00
2023-07-01T07:11:48.447Z,448.00
2023-07-01T07:12:48.478Z,446.00
2023-07-01T07:13:48.563Z,448.00
2023-07-01T07:14:48.526Z,448.00
2023-07-01T07:15:48.597Z,448.00
2023-07-01T07:16:48.643Z,445.00
2023-07-01T07:17:48.760Z,447.00
2023-07-01T07:18:48.769Z,449.00
2023-07-01T07:19:48.736Z,448.00
2023-07-01T07:20:48.935Z,447.00
2023-07-01T07:21:48.826Z,446.00
2023-07-01T07:22:48.862Z,448.00
2023-07-01T07:23:48.925Z,449.00
2023-07-01T07:24:48.966Z,449.00
2023-07-01T07:25:48.983Z,447.00
2023-07-01T07:26:49.018Z,449.00
2023-07-01T07:27:49.010Z,448.00
2023-07-01T07:28:49.048Z,448.00
2023-07-01T07:29:49.103Z,448.00
2023-07-01T07:30:49.385Z,446.00
2023-07-01T07:31:49.145Z,446.00
2023-07-01T07:32:49.256Z,443.00
2023-07-01T07:33:49.240Z,445.00
2023-07-01T07:34:49.278Z,443.00
2023-07-01T07:35:49.295Z,443.00
2023-07-01T07:36:49.318Z,444.00
2023-07-01T07:37:49.357Z,445.00
2023-07-01T07:38:49.387Z,446.00
2023-07-01T07:39:49.430Z,446.00
2023-07-01T07:40:49.856Z,447.00
2023-07-01T07:41:49.526Z,448.00
2023-07-01T07:42:49.565Z,449.00
2023-07-01T07:43:49.585Z,448.00
2023-07-01T07:44:49.617Z,446.00
2023-07-01T07:45:49.624Z,448.00
2023-07-01T07:46:49.796Z,450.00
2023-07-01T07:47:50.208Z,451.00
2023-07-01T07:48:49.749Z,451.00
2023-07-01T07:49:49.754Z,451.00
2023-07-01T07:50:50.141Z,450.00
2023-07-01T07:51:49.867Z,450.00
2023-07-01T07:52:49.901Z,450.00
2023-07-01T07:53:49.964Z,449.00
2023-07-01T07:54:49.940Z,448.00
2023-07-01T07:55:49.983Z,448.00
2023-07-01T07:56:50.050Z,445.00
2023-07-01T07:57:50.053Z,445.00
2023-07-01T07:58:50.112Z,445.00
2023-07-01T07:59:50.147Z,448.00
2023-07-01T08:00:50.186Z,453.00
2023-07-01T08:01:50.225Z,454.00
2023-07-01T08:02:50.253Z,451.00
2023-07-01T08:03:50.335Z,452.00
2023-07-01T08:04:50.497Z,451.00
2023-07-01T08:05:50.360Z,451.00
2023-07-01T08:06:50.356Z,447.00
2023-07-01T08:07:50.398Z,439.00
2023-07-01T08:08:50.473Z,442.00
2023-07-01T08:09:50.445Z,441.00
2023-07-01T08:10:50.660Z,441.00
2023-07-01T08:11:50.537Z,444.00
2023-07-01T08:12:50.567Z,445.00
2023-07-01T08:13:50.617Z,446.00
2023-07-01T08:14:50.682Z,447.00
2023-07-01T08:15:50.691Z,446.00
2023-07-01T08:16:50.790Z,447.00
2023-07-01T08:17:50.836Z,448.00
2023-07-01T08:18:50.851Z,445.00
2023-07-01T08:19:50.839Z,443.00
2023-07-01T08:20:51.028Z,443.00
2023-07-01T08:21:50.950Z,443.00
2023-07-01T08:22:50.906Z,442.00
2023-07-01T08:23:50.961Z,442.00
2023-07-01T08:24:51.041Z,442.00
2023-07-01T08:25:51.038Z,440.00
2023-07-01T08:26:51.077Z,440.00
2023-07-01T08:27:51.121Z,442.00
2023-07-01T08:28:51.132Z,442.00
2023-07-01T08:29:51.170Z,443.00
2023-07-01T08:30:51.448Z,447.00
2023-07-01T08:31:51.230Z,450.00
2023-07-01T08:32:51.307Z,451.00
2023-07-01T08:33:51.312Z,452.00
2023-07-01T08:34:51.363Z,452.00
2023-07-01T08:35:51.384Z,453.00
2023-07-01T08:36:51.416Z,453.00
2023-07-01T08:37:51.517Z,451.00
2023-07-01T08:38:51.506Z,449.00
2023-07-01T08:39:51.517Z,451.00
2023-07-01T08:40:51.603Z,451.00
2023-07-01T08:41:51.603Z,451.00
2023-07-01T08:42:51.635Z,450.00
2023-07-01T08:43:51.662Z,450.00
2023-07-01T08:44:51.686Z,450.00
2023-07-01T08:45:51.725Z,448.00
2023-07-01T08:46:51.736Z,447.00
2023-07-01T08:47:51.832Z,448.00
2023-07-01T08:48:51.789Z,450.00
2023-07-01T08:49:51.819Z,450.00
2023-07-01T08:50:51.823Z,450.00
2023-07-01T08:51:51.874Z,450.00
2023-07-01T08:52:52.021Z,454.00
2023-07-01T08:53:51.926Z,457.00
2023-07-01T08:54:51.967Z,455.00
2023-07-01T08:55:51.965Z,456.00
2023-07-01T08:56:51.991Z,456.00
2023-07-01T08:57:52.044Z,456.00
2023-07-01T08:58:52.072Z,456.00
2023-07-01T08:59:52.104Z,456.00
2023-07-01T09:00:52.115Z,455.00
2023-07-01T09:01:52.210Z,455.00
2023-07-01T09:02:52.251Z,455.00
2023-07-01T09:03:52.275Z,454.00
2023-07-01T09:04:52.240Z,454.00
2023-07-01T09:05:52.283Z,453.00
2023-07-01T09:06:52.335Z,451.00
2023-07-01T09:07:52.667Z,452.00
2023-07-01T09:08:52.405Z,452.00
2023-07-01T09:09:52.383Z,451.00
2023-07-01T09:10:52.499Z,446.00
2023-07-01T09:11:52.452Z,448.00
2023-07-01T09:12:52.712Z,447.00
2023-07-01T09:13:52.552Z,446.00
2023-07-01T09:14:52.557Z,445.00
2023-07-01T09:15:52.763Z,444.00
2023-07-01T09:16:52.625Z,443.00
2023-07-01T09:17:52.654Z,441.00
2023-07-01T09:18:52.671Z,440.00
2023-07-01T09:19:52.700Z,441.00
2023-07-01T09:20:52.750Z,439.00
2023-07-01T09:21:52.770Z,440.00
2023-07-01T09:22:52.820Z,441.00
2023-07-01T09:23:52.847Z,444.00
2023-07-01T09:24:52.903Z,442.00
2023-07-01T09:25:52.906Z,442.00
2023-07-01T09:26:52.924Z,442.00
2023-07-01T09:27:53.187Z,440.00
2023-07-01T09:28:53.027Z,438.00
2023-07-01T09:29:53.028Z,437.00
2023-07-01T09:30:53.042Z,437.00
2023-07-01T09:31:53.269Z,437.00
2023-07-01T09:32:53.168Z,437.00
2023-07-01T09:33:53.146Z,436.00
2023-07-01T09:34:53.190Z,435.00
2023-07-01T09:35:53.181Z,435.00
2023-07-01T09:36:53.236Z,433.00
2023-07-01T09:37:53.297Z,437.00
2023-07-01T09:38:53.308Z,439.00
2023-07-01T09:39:53.308Z,438.00
2023-07-01T09:40:53.366Z,438.00
2023-07-01T09:41:53.380Z,438.00
2023-07-01T09:42:53.406Z,436.00
2023-07-01T09:43:53.442Z,434.00
2023-07-01T09:44:53.444Z,433.00
2023-07-01T09:45:53.487Z,433.00
2023-07-01T09:46:53.520Z,433.00
2023-07-01T09:47:53.703Z,432.00
2023-07-01T09:48:53.627Z,434.00
2023-07-01T09:49:53.607Z,434.00
2023-07-01T09:50:53.644Z,436.00
2023-07-01T09:51:53.653Z,437.00
2023-07-01T09:52:53.667Z,437.00
2023-07-01T09:53:53.694Z,437.00
2023-07-01T09:54:53.704Z,438.00
2023-07-01T09:55:53.722Z,436.00
2023-07-01T09:56:53.738Z,436.00
2023-07-01T09:57:54.219Z,439.00
2023-07-01T09:58:53.836Z,439.00
2023-07-01T09:59:53.858Z,439.00
2023-07-01T10:00:53.922Z,439.00
2023-07-01T10:01:53.968Z,442.00
2023-07-01T10:02:54.074Z,445.00
2023-07-01T10:03:54.059Z,445.00
2023-07-01T10:04:54.067Z,444.00
2023-07-01T10:05:54.052Z,445.00
2023-07-01T10:06:54.121Z,445.00
2023-07-01T10:07:54.111Z,449.00
2023-07-01T10:08:54.140Z,448.00
2023-07-01T10:09:54.188Z,448.00
2023-07-01T10:10:54.245Z,446.00
2023-07-01T10:11:54.268Z,446.00
2023-07-01T10:12:54.265Z,447.00
2023-07-01T10:13:55.208Z,450.00
2023-07-01T10:14:54.323Z,450.00
2023-07-01T10:15:54.376Z,451.00
2023-07-01T10:16:54.447Z,450.00
2023-07-01T10:17:54.476Z,450.00
2023-07-01T10:18:54.500Z,448.00
2023-07-01T10:19:54.513Z,446.00
2023-07-01T10:20:54.531Z,444.00
2023-07-01T10:21:54.578Z,443.00
2023-07-01T10:22:54.586Z,443.00
2023-07-01T10:23:54.640Z,441.00
2023-07-01T10:24:54.649Z,442.00
2023-07-01T10:25:54.711Z,446.00
2023-07-01T10:26:54.708Z,445.00
2023-07-01T10:27:54.787Z,445.00
2023-07-01T10:28:54.810Z,445.00
2023-07-01T10:29:54.831Z,445.00
2023-07-01T10:30:54.903Z,443.00
2023-07-01T10:31:54.879Z,442.00
2023-07-01T10:32:54.932Z,441.00
2023-07-01T10:33:54.926Z,439.00
2023-07-01T10:34:54.982Z,439.00
2023-07-01T10:35:55.032Z,440.00
2023-07-01T10:36:55.001Z,439.00
2023-07-01T10:37:55.069Z,439.00
2023-07-01T10:38:55.085Z,438.00
2023-07-01T10:39:55.122Z,437.00
2023-07-01T10:40:55.164Z,436.00
2023-07-01T10:41:55.188Z,437.00
2023-07-01T10:42:55.187Z,436.00
2023-07-01T10:43:55.193Z,434.00
2023-07-01T10:44:55.242Z,436.00
2023-07-01T10:45:55.252Z,436.00
2023-07-01T10:46:55.342Z,436.00
2023-07-01T10:47:55.336Z,437.00
2023-07-01T10:48:55.397Z,437.00
2023-07-01T10:49:55.354Z,440.00
2023-07-01T10:50:55.400Z,441.00
2023-07-01T10:51:55.387Z,440.00
2023-07-01T10:52:55.470Z,438.00
2023-07-01T10:53:55.463Z,436.00
2023-07-01T10:54:55.504Z,436.00
2023-07-01T10:55:55.477Z,434.00
2023-07-01T10:56:55.539Z,435.00
2023-07-01T10:57:55.549Z,435.00
2023-07-01T10:58:55.568Z,436.00
2023-07-01T10:59:55.564Z,438.00
2023-07-01T11:00:55.561Z,442.00
2023-07-01T11:01:55.611Z,442.00
2023-07-01T11:02:55.700Z,444.00
2023-07-01T11:03:55.698Z,446.00
2023-07-01T11:04:55.665Z,445.00
2023-07-01T11:05:55.707Z,442.00
2023-07-01T11:06:55.676Z,440.00
2023-07-01T11:07:55.710Z,442.00
2023-07-01T11:08:55.862Z,441.00
2023-07-01T11:09:55.785Z,440.00
2023-07-01T11:10:55.801Z,441.00
2023-07-01T11:11:55.811Z,442.00
2023-07-01T11:12:55.813Z,441.00
2023-07-01T11:13:55.826Z,443.00
2023-07-01T11:14:55.821Z,441.00
2023-07-01T11:15:55.902Z,442.00
2023-07-01T11:16:55.886Z,439.00
2023-07-01T11:17:56.004Z,437.00
2023-07-01T11:18:55.903Z,436.00
2023-07-01T11:19:55.940Z,436.00
2023-07-01T11:20:55.904Z,437.00
2023-07-01T11:21:55.972Z,437.00
2023-07-01T11:22:55.981Z,437.00
2023-07-01T11:23:56.030Z,439.00
2023-07-01T11:24:56.047Z,440.00
2023-07-01T11:25:56.028Z,438.00
2023-07-01T11:26:56.060Z,438.00
2023-07-01T11:27:56.063Z,438.00
2023-07-01T11:28:56.075Z,438.00
2023-07-01T11:29:56.030Z,440.00
2023-07-01T11:30:56.094Z,440.00
2023-07-01T11:31:56.146Z,440.00
2023-07-01T11:32:56.156Z,442.00
2023-07-01T11:33:56.057Z,441.00
2023-07-01T11:34:56.112Z,440.00
2023-07-01T11:35:56.127Z,441.00
2023-07-01T11:36:56.198Z,440.00
2023-07-01T11:37:56.154Z,441.00
2023-07-01T11:38:56.169Z,441.00
2023-07-01T11:39:56.177Z,443.00
2023-07-01T11:40:56.203Z,440.00
2023-07-01T11:41:56.213Z,440.00
2023-07-01T11:42:56.225Z,439.00
2023-07-01T11:43:56.203Z,439.00
2023-07-01T11:44:56.301Z,438.00
2023-07-01T11:45:56.307Z,440.00
2023-07-01T11:46:56.258Z,440.00
2023-07-01T11:47:56.329Z,440.00
2023-07-01T11:48:56.320Z,440.00
2023-07-01T11:49:56.283Z,439.00
2023-07-01T11:50:56.329Z,440.00
2023-07-01T11:51:56.341Z,442.00
2023-07-01T11:52:56.341Z,444.00
2023-07-01T11:53:56.319Z,445.00
2023-07-01T11:54:56.828Z,445.00
2023-07-01T11:55:56.393Z,446.00
2023-07-01T11:56:56.366Z,442.00
2023-07-01T11:57:56.425Z,442.00
2023-07-01T11:59:00.794Z,443.00
2023-07-01T11:59:57.382Z,441.00
2023-07-01T12:00:56.376Z,438.00
2023-07-01T12:01:56.458Z,437.00
2023-07-01T12:02:56.413Z,437.00
2023-07-01T12:03:56.424Z,438.00
2023-07-01T12:04:56.389Z,441.00
2023-07-01T12:05:56.425Z,445.00
2023-07-01T12:06:56.335Z,448.00
2023-07-01T12:07:56.355Z,446.00
2023-07-01T12:09:07.458Z,443.00
2023-07-01T12:09:57.336Z,441.00
2023-07-01T12:10:56.322Z,441.00
2023-07-01T12:11:56.308Z,439.00
2023-07-01T12:12:56.287Z,438.00
2023-07-01T12:13:56.314Z,437.00
2023-07-01T12:14:56.292Z,437.00
2023-07-01T12:15:56.543Z,436.00
2023-07-01T12:16:56.286Z,436.00
2023-07-01T12:17:56.309Z,436.00
2023-07-01T12:18:56.269Z,436.00
2023-07-01T12:19:56.270Z,437.00
2023-07-01T12:20:56.233Z,440.00
2023-07-01T12:21:56.249Z,439.00
2023-07-01T12:22:56.211Z,439.00
2023-07-01T12:23:56.225Z,437.00
2023-07-01T12:24:56.237Z,441.00
2023-07-01T12:25:56.207Z,441.00
2023-07-01T12:26:56.232Z,440.00
2023-07-01T12:27:56.227Z,438.00
2023-07-01T12:28:56.192Z,437.00